sensor_id;sensor_type;location;lat;lon;timestamp;pressure;altitude;pressure_sealevel;temperature;humidity
34205;BME280;20471;49.680;20.074;2024-03-06T00:00:39;97237.23;;;5.83;81.13
34205;BME280;20471;49.680;20.074;2024-03-06T00:03:27;97233.86;;;5.81;81.13
34205;BME280;20471;49.680;20.074;2024-03-06T00:05:55;97235.79;;;5.74;81.08
34205;BME280;20471;49.680;20.074;2024-03-06T00:08:22;97236.41;;;5.69;80.99
34205;BME280;20471;49.680;20.074;2024-03-06T00:10:50;97237.46;;;5.68;81.22
34205;BME280;20471;49.680;20.074;2024-03-06T00:13:18;97237.53;;;5.66;81.23
34205;BME280;20471;49.680;20.074;2024-03-06T00:15:46;97234.98;;;5.64;81.23
34205;BME280;20471;49.680;20.074;2024-03-06T00:18:14;97238.48;;;5.61;81.23
34205;BME280;20471;49.680;20.074;2024-03-06T00:20:42;97239.92;;;5.61;81.38
34205;BME280;20471;49.680;20.074;2024-03-06T00:23:11;97242.06;;;5.61;81.40
34205;BME280;20471;49.680;20.074;2024-03-06T00:25:38;97241.30;;;5.60;81.40
34205;BME280;20471;49.680;20.074;2024-03-06T00:28:06;97245.45;;;5.61;81.38
34205;BME280;20471;49.680;20.074;2024-03-06T00:30:34;97243.59;;;5.63;81.32
34205;BME280;20471;49.680;20.074;2024-03-06T00:33:02;97244.85;;;5.65;81.20
34205;BME280;20471;49.680;20.074;2024-03-06T00:35:29;97246.00;;;5.62;81.19
34205;BME280;20471;49.680;20.074;2024-03-06T00:37:57;97241.77;;;5.61;81.13
34205;BME280;20471;49.680;20.074;2024-03-06T00:40:29;97243.30;;;5.61;81.16
34205;BME280;20471;49.680;20.074;2024-03-06T00:42:58;97243.12;;;5.60;81.09
34205;BME280;20471;49.680;20.074;2024-03-06T00:45:26;97242.69;;;5.59;81.16
34205;BME280;20471;49.680;20.074;2024-03-06T00:47:54;97244.00;;;5.61;81.22
34205;BME280;20471;49.680;20.074;2024-03-06T00:50:21;97245.47;;;5.63;81.09
34205;BME280;20471;49.680;20.074;2024-03-06T00:52:49;97246.54;;;5.62;81.05
34205;BME280;20471;49.680;20.074;2024-03-06T00:55:17;97248.73;;;5.62;81.09
34205;BME280;20471;49.680;20.074;2024-03-06T00:57:45;97247.52;;;5.62;81.10
34205;BME280;20471;49.680;20.074;2024-03-06T01:00:13;97245.97;;;5.63;81.04
34205;BME280;20471;49.680;20.074;2024-03-06T01:02:42;97246.33;;;5.64;81.06
34205;BME280;20471;49.680;20.074;2024-03-06T01:05:10;97245.80;;;5.63;80.92
34205;BME280;20471;49.680;20.074;2024-03-06T01:07:38;97246.80;;;5.55;80.96
34205;BME280;20471;49.680;20.074;2024-03-06T01:10:06;97247.48;;;5.49;80.97
34205;BME280;20471;49.680;20.074;2024-03-06T01:12:35;97248.88;;;5.46;81.05
34205;BME280;20471;49.680;20.074;2024-03-06T01:15:03;97248.13;;;5.42;81.10
34205;BME280;20471;49.680;20.074;2024-03-06T01:17:31;97244.61;;;5.38;81.21
34205;BME280;20471;49.680;20.074;2024-03-06T01:19:59;97242.20;;;5.36;81.26
34205;BME280;20471;49.680;20.074;2024-03-06T01:22:27;97240.73;;;5.35;81.28
34205;BME280;20471;49.680;20.074;2024-03-06T01:24:55;97239.88;;;5.36;81.40
34205;BME280;20471;49.680;20.074;2024-03-06T01:27:23;97244.30;;;5.39;81.45
34205;BME280;20471;49.680;20.074;2024-03-06T01:29:50;97242.66;;;5.42;81.48
34205;BME280;20471;49.680;20.074;2024-03-06T01:32:18;97239.67;;;5.47;81.43
34205;BME280;20471;49.680;20.074;2024-03-06T01:34:46;97239.98;;;5.51;81.27
34205;BME280;20471;49.680;20.074;2024-03-06T01:37:13;97241.88;;;5.51;81.30
34205;BME280;20471;49.680;20.074;2024-03-06T01:39:41;97243.85;;;5.48;81.33
34205;BME280;20471;49.680;20.074;2024-03-06T01:42:09;97246.54;;;5.40;81.33
34205;BME280;20471;49.680;20.074;2024-03-06T01:44:36;97247.71;;;5.34;81.37
34205;BME280;20471;49.680;20.074;2024-03-06T01:47:04;97248.66;;;5.31;81.55
34205;BME280;20471;49.680;20.074;2024-03-06T01:49:33;97247.52;;;5.31;81.66
34205;BME280;20471;49.680;20.074;2024-03-06T01:52:01;97249.52;;;5.30;81.58
34205;BME280;20471;49.680;20.074;2024-03-06T01:54:30;97254.98;;;5.29;81.59
34205;BME280;20471;49.680;20.074;2024-03-06T01:56:59;97256.56;;;5.28;81.62
34205;BME280;20471;49.680;20.074;2024-03-06T01:59:29;97256.17;;;5.27;81.74
34205;BME280;20471;49.680;20.074;2024-03-06T02:01:57;97258.59;;;5.26;81.70
34205;BME280;20471;49.680;20.074;2024-03-06T02:04:25;97257.04;;;5.28;81.70
34205;BME280;20471;49.680;20.074;2024-03-06T02:06:54;97256.65;;;5.31;81.67
34205;BME280;20471;49.680;20.074;2024-03-06T02:09:23;97253.35;;;5.34;81.53
34205;BME280;20471;49.680;20.074;2024-03-06T02:11:50;97250.60;;;5.34;81.52
34205;BME280;20471;49.680;20.074;2024-03-06T02:14:18;97252.13;;;5.35;81.43
34205;BME280;20471;49.680;20.074;2024-03-06T02:16:46;97252.73;;;5.36;81.41
34205;BME280;20471;49.680;20.074;2024-03-06T02:19:13;97253.16;;;5.32;81.28
34205;BME280;20471;49.680;20.074;2024-03-06T02:21:41;97254.98;;;5.26;81.09
34205;BME280;20471;49.680;20.074;2024-03-06T02:24:10;97255.01;;;5.21;81.00
34205;BME280;20471;49.680;20.074;2024-03-06T02:26:39;97257.96;;;5.13;80.95
34205;BME280;20471;49.680;20.074;2024-03-06T02:29:08;97255.80;;;5.06;81.00
34205;BME280;20471;49.680;20.074;2024-03-06T02:31:36;97254.94;;;4.99;80.95
34205;BME280;20471;49.680;20.074;2024-03-06T02:34:05;97257.64;;;4.92;80.95
34205;BME280;20471;49.680;20.074;2024-03-06T02:36:33;97258.59;;;4.85;80.99
34205;BME280;20471;49.680;20.074;2024-03-06T02:39:01;97266.20;;;4.82;81.13
34205;BME280;20471;49.680;20.074;2024-03-06T02:41:35;97266.67;;;4.79;81.17
34205;BME280;20471;49.680;20.074;2024-03-06T02:44:03;97265.91;;;4.78;81.18
34205;BME280;20471;49.680;20.074;2024-03-06T02:46:31;97265.52;;;4.77;81.19
34205;BME280;20471;49.680;20.074;2024-03-06T02:48:59;97265.59;;;4.71;81.10
34205;BME280;20471;49.680;20.074;2024-03-06T02:51:27;97265.48;;;4.69;81.18
34205;BME280;20471;49.680;20.074;2024-03-06T02:53:54;97267.45;;;4.69;81.18
34205;BME280;20471;49.680;20.074;2024-03-06T02:56:22;97266.77;;;4.65;81.28
34205;BME280;20471;49.680;20.074;2024-03-06T02:58:49;97271.25;;;4.62;81.31
34205;BME280;20471;49.680;20.074;2024-03-06T03:01:17;97271.82;;;4.59;81.29
34205;BME280;20471;49.680;20.074;2024-03-06T03:03:45;97271.59;;;4.53;81.22
34205;BME280;20471;49.680;20.074;2024-03-06T03:06:13;97272.01;;;4.48;81.28
34205;BME280;20471;49.680;20.074;2024-03-06T03:08:41;97270.20;;;4.48;81.45
34205;BME280;20471;49.680;20.074;2024-03-06T03:11:09;97271.72;;;4.47;81.41
34205;BME280;20471;49.680;20.074;2024-03-06T03:13:38;97272.91;;;4.45;81.34
34205;BME280;20471;49.680;20.074;2024-03-06T03:16:05;97280.48;;;4.43;81.36
34205;BME280;20471;49.680;20.074;2024-03-06T03:18:33;97282.15;;;4.36;81.24
34205;BME280;20471;49.680;20.074;2024-03-06T03:21:01;97280.71;;;4.28;81.24
34205;BME280;20471;49.680;20.074;2024-03-06T03:23:29;97283.52;;;4.27;81.39
34205;BME280;20471;49.680;20.074;2024-03-06T03:25:56;97286.20;;;4.25;81.37
34205;BME280;20471;49.680;20.074;2024-03-06T03:28:24;97285.08;;;4.22;81.36
34205;BME280;20471;49.680;20.074;2024-03-06T03:30:52;97288.42;;;4.19;81.24
34205;BME280;20471;49.680;20.074;2024-03-06T03:33:19;97290.17;;;4.14;81.19
34205;BME280;20471;49.680;20.074;2024-03-06T03:35:47;97290.23;;;4.11;81.20
34205;BME280;20471;49.680;20.074;2024-03-06T03:38:15;97291.67;;;4.09;81.19
34205;BME280;20471;49.680;20.074;2024-03-06T03:40:42;97291.69;;;4.06;81.08
34205;BME280;20471;49.680;20.074;2024-03-06T03:43:10;97295.06;;;4.03;81.06
34205;BME280;20471;49.680;20.074;2024-03-06T03:45:38;97294.35;;;3.98;81.06
34205;BME280;20471;49.680;20.074;2024-03-06T03:48:06;97298.23;;;3.93;80.92
34205;BME280;20471;49.680;20.074;2024-03-06T03:50:33;97296.34;;;3.90;80.82
34205;BME280;20471;49.680;20.074;2024-03-06T03:53:01;97296.10;;;3.88;80.83
34205;BME280;20471;49.680;20.074;2024-03-06T03:55:29;97296.88;;;3.91;80.93
34205;BME280;20471;49.680;20.074;2024-03-06T03:57:57;97299.61;;;3.94;80.90
34205;BME280;20471;49.680;20.074;2024-03-06T04:00:24;97298.42;;;3.90;80.69
34205;BME280;20471;49.680;20.074;2024-03-06T04:02:52;97301.42;;;3.79;80.43
34205;BME280;20471;49.680;20.074;2024-03-06T04:05:20;97299.85;;;3.71;80.48
34205;BME280;20471;49.680;20.074;2024-03-06T04:07:47;97303.99;;;3.68;80.62
34205;BME280;20471;49.680;20.074;2024-03-06T04:10:15;97303.75;;;3.65;80.72
34205;BME280;20471;49.680;20.074;2024-03-06T04:12:43;97303.81;;;3.64;80.74
34205;BME280;20471;49.680;20.074;2024-03-06T04:15:10;97308.47;;;3.62;80.80
34205;BME280;20471;49.680;20.074;2024-03-06T04:17:38;97308.33;;;3.59;80.75
34205;BME280;20471;49.680;20.074;2024-03-06T04:20:07;97310.89;;;3.57;80.90
34205;BME280;20471;49.680;20.074;2024-03-06T04:22:39;97314.69;;;3.56;80.91
34205;BME280;20471;49.680;20.074;2024-03-06T04:25:07;97313.05;;;3.55;80.92
34205;BME280;20471;49.680;20.074;2024-03-06T04:27:34;97312.22;;;3.54;80.95
34205;BME280;20471;49.680;20.074;2024-03-06T04:30:03;97311.42;;;3.55;81.02
34205;BME280;20471;49.680;20.074;2024-03-06T04:32:31;97315.02;;;3.55;81.01
34205;BME280;20471;49.680;20.074;2024-03-06T04:34:59;97319.98;;;3.53;81.03
34205;BME280;20471;49.680;20.074;2024-03-06T04:37:27;97323.30;;;3.52;81.13
34205;BME280;20471;49.680;20.074;2024-03-06T04:39:55;97324.33;;;3.53;81.16
34205;BME280;20471;49.680;20.074;2024-03-06T04:42:23;97324.83;;;3.53;81.15
34205;BME280;20471;49.680;20.074;2024-03-06T04:44:51;97326.77;;;3.52;81.16
34205;BME280;20471;49.680;20.074;2024-03-06T04:47:18;97325.13;;;3.52;81.25
34205;BME280;20471;49.680;20.074;2024-03-06T04:49:47;97324.53;;;3.53;81.25
34205;BME280;20471;49.680;20.074;2024-03-06T04:52:16;97324.63;;;3.53;81.23
34205;BME280;20471;49.680;20.074;2024-03-06T04:54:43;97320.55;;;3.53;81.21
34205;BME280;20471;49.680;20.074;2024-03-06T04:57:11;97320.52;;;3.53;81.23
34205;BME280;20471;49.680;20.074;2024-03-06T04:59:39;97320.80;;;3.54;81.27
34205;BME280;20471;49.680;20.074;2024-03-06T05:02:06;97322.33;;;3.53;81.17
34205;BME280;20471;49.680;20.074;2024-03-06T05:04:35;97324.63;;;3.52;81.19
34205;BME280;20471;49.680;20.074;2024-03-06T05:07:03;97323.16;;;3.50;81.26
34205;BME280;20471;49.680;20.074;2024-03-06T05:09:31;97325.00;;;3.50;81.26
34205;BME280;20471;49.680;20.074;2024-03-06T05:11:59;97332.90;;;3.46;81.28
34205;BME280;20471;49.680;20.074;2024-03-06T05:14:26;97335.70;;;3.45;81.41
34205;BME280;20471;49.680;20.074;2024-03-06T05:16:54;97331.02;;;3.45;81.34
34205;BME280;20471;49.680;20.074;2024-03-06T05:19:22;97329.42;;;3.46;81.19
34205;BME280;20471;49.680;20.074;2024-03-06T05:21:49;97324.71;;;3.45;81.07
34205;BME280;20471;49.680;20.074;2024-03-06T05:24:17;97324.25;;;3.44;81.10
34205;BME280;20471;49.680;20.074;2024-03-06T05:26:45;97328.83;;;3.45;81.03
34205;BME280;20471;49.680;20.074;2024-03-06T05:29:12;97329.38;;;3.44;81.12
34205;BME280;20471;49.680;20.074;2024-03-06T05:31:40;97331.35;;;3.44;81.19
34205;BME280;20471;49.680;20.074;2024-03-06T05:34:08;97333.30;;;3.44;81.18
34205;BME280;20471;49.680;20.074;2024-03-06T05:36:36;97335.80;;;3.44;81.05
34205;BME280;20471;49.680;20.074;2024-03-06T05:39:03;97339.52;;;3.44;81.04
34205;BME280;20471;49.680;20.074;2024-03-06T05:41:33;97339.52;;;3.43;81.00
34205;BME280;20471;49.680;20.074;2024-03-06T05:44:01;97346.27;;;3.41;81.01
34205;BME280;20471;49.680;20.074;2024-03-06T05:46:30;97351.27;;;3.41;80.99
34205;BME280;20471;49.680;20.074;2024-03-06T05:48:58;97353.63;;;3.40;80.92
34205;BME280;20471;49.680;20.074;2024-03-06T05:51:28;97354.42;;;3.40;81.04
34205;BME280;20471;49.680;20.074;2024-03-06T05:53:56;97353.70;;;3.38;80.90
34205;BME280;20471;49.680;20.074;2024-03-06T05:56:24;97352.64;;;3.38;80.88
34205;BME280;20471;49.680;20.074;2024-03-06T05:58:52;97355.25;;;3.37;80.82
34205;BME280;20471;49.680;20.074;2024-03-06T06:01:21;97361.63;;;3.36;80.81
34205;BME280;20471;49.680;20.074;2024-03-06T06:03:49;97364.52;;;3.34;80.80
34205;BME280;20471;49.680;20.074;2024-03-06T06:06:17;97364.91;;;3.32;80.83
34205;BME280;20471;49.680;20.074;2024-03-06T06:08:45;97366.15;;;3.34;80.96
34205;BME280;20471;49.680;20.074;2024-03-06T06:11:13;97369.25;;;3.41;81.04
34205;BME280;20471;49.680;20.074;2024-03-06T06:13:40;97368.52;;;3.49;81.14
34205;BME280;20471;49.680;20.074;2024-03-06T06:16:08;97367.97;;;3.55;81.28
34205;BME280;20471;49.680;20.074;2024-03-06T06:18:36;97367.34;;;3.61;81.12
34205;BME280;20471;49.680;20.074;2024-03-06T06:21:04;97369.02;;;3.65;81.12
34205;BME280;20471;49.680;20.074;2024-03-06T06:23:34;97370.93;;;3.69;81.01
34205;BME280;20471;49.680;20.074;2024-03-06T06:26:02;97371.16;;;3.72;80.97
34205;BME280;20471;49.680;20.074;2024-03-06T06:28:30;97372.15;;;3.74;80.81
34205;BME280;20471;49.680;20.074;2024-03-06T06:30:57;97372.87;;;3.75;80.69
34205;BME280;20471;49.680;20.074;2024-03-06T06:33:25;97373.59;;;3.74;80.68
34205;BME280;20471;49.680;20.074;2024-03-06T06:35:53;97378.67;;;3.73;80.59
34205;BME280;20471;49.680;20.074;2024-03-06T06:38:21;97379.84;;;3.74;80.63
34205;BME280;20471;49.680;20.074;2024-03-06T06:40:48;97377.36;;;3.74;80.51
34205;BME280;20471;49.680;20.074;2024-03-06T06:43:17;97375.00;;;3.69;80.37
34205;BME280;20471;49.680;20.074;2024-03-06T06:45:44;97378.89;;;3.66;80.45
34205;BME280;20471;49.680;20.074;2024-03-06T06:48:12;97379.47;;;3.66;80.51
34205;BME280;20471;49.680;20.074;2024-03-06T06:50:40;97377.13;;;3.66;80.51
34205;BME280;20471;49.680;20.074;2024-03-06T06:53:08;97381.14;;;3.65;80.45
34205;BME280;20471;49.680;20.074;2024-03-06T06:55:35;97383.73;;;3.64;80.49
34205;BME280;20471;49.680;20.074;2024-03-06T06:58:04;97384.83;;;3.62;80.42
34205;BME280;20471;49.680;20.074;2024-03-06T07:00:33;97381.29;;;3.61;80.45
34205;BME280;20471;49.680;20.074;2024-03-06T07:03:03;97382.22;;;3.60;80.58
34205;BME280;20471;49.680;20.074;2024-03-06T07:05:31;97378.71;;;3.61;80.59
34205;BME280;20471;49.680;20.074;2024-03-06T07:07:59;97379.48;;;3.63;80.62
34205;BME280;20471;49.680;20.074;2024-03-06T07:10:26;97376.63;;;3.66;80.74
34205;BME280;20471;49.680;20.074;2024-03-06T07:12:54;97379.04;;;3.63;80.67
34205;BME280;20471;49.680;20.074;2024-03-06T07:15:22;97373.77;;;3.64;80.74
34205;BME280;20471;49.680;20.074;2024-03-06T07:17:51;97374.67;;;3.61;80.71
34205;BME280;20471;49.680;20.074;2024-03-06T07:20:19;97374.71;;;3.56;80.66
34205;BME280;20471;49.680;20.074;2024-03-06T07:22:47;97372.61;;;3.56;80.81
34205;BME280;20471;49.680;20.074;2024-03-06T07:25:14;97371.18;;;3.59;80.83
34205;BME280;20471;49.680;20.074;2024-03-06T07:27:42;97367.90;;;3.61;80.95
34205;BME280;20471;49.680;20.074;2024-03-06T07:30:10;97367.45;;;3.68;81.13
34205;BME280;20471;49.680;20.074;2024-03-06T07:32:38;97368.74;;;3.77;81.18
34205;BME280;20471;49.680;20.074;2024-03-06T07:35:06;97372.00;;;3.87;81.13
34205;BME280;20471;49.680;20.074;2024-03-06T07:37:34;97369.85;;;3.91;81.02
34205;BME280;20471;49.680;20.074;2024-03-06T07:40:02;97368.44;;;3.96;80.90
34205;BME280;20471;49.680;20.074;2024-03-06T07:42:31;97368.35;;;4.02;80.67
34205;BME280;20471;49.680;20.074;2024-03-06T07:44:59;97364.49;;;4.08;80.72
34205;BME280;20471;49.680;20.074;2024-03-06T07:47:27;97359.48;;;4.17;80.69
34205;BME280;20471;49.680;20.074;2024-03-06T07:49:55;97363.70;;;4.19;80.35
34205;BME280;20471;49.680;20.074;2024-03-06T07:52:22;97363.96;;;4.26;80.32
34205;BME280;20471;49.680;20.074;2024-03-06T07:54:49;97369.96;;;4.39;80.22
34205;BME280;20471;49.680;20.074;2024-03-06T07:57:16;97370.45;;;4.49;80.04
34205;BME280;20471;49.680;20.074;2024-03-06T07:59:43;97377.31;;;4.59;79.87
34205;BME280;20471;49.680;20.074;2024-03-06T08:02:10;97379.37;;;4.64;79.49
34205;BME280;20471;49.680;20.074;2024-03-06T08:04:36;97374.44;;;4.74;79.24
34205;BME280;20471;49.680;20.074;2024-03-06T08:07:03;97374.65;;;4.80;78.98
34205;BME280;20471;49.680;20.074;2024-03-06T08:09:30;97377.07;;;4.88;78.89
34205;BME280;20471;49.680;20.074;2024-03-06T08:11:57;97380.39;;;4.93;78.62
34205;BME280;20471;49.680;20.074;2024-03-06T08:14:23;97382.11;;;5.00;78.30
34205;BME280;20471;49.680;20.074;2024-03-06T08:16:51;97379.13;;;5.05;78.06
34205;BME280;20471;49.680;20.074;2024-03-06T08:19:17;97377.41;;;5.11;78.08
34205;BME280;20471;49.680;20.074;2024-03-06T08:21:44;97376.73;;;5.15;77.62
34205;BME280;20471;49.680;20.074;2024-03-06T08:24:12;97375.41;;;5.19;77.50
34205;BME280;20471;49.680;20.074;2024-03-06T08:26:40;97376.58;;;5.21;77.37
34205;BME280;20471;49.680;20.074;2024-03-06T08:29:07;97375.45;;;5.24;77.32
34205;BME280;20471;49.680;20.074;2024-03-06T08:31:33;97374.30;;;5.28;77.04
34205;BME280;20471;49.680;20.074;2024-03-06T08:34:00;97374.92;;;5.27;76.74
34205;BME280;20471;49.680;20.074;2024-03-06T08:36:27;97373.70;;;5.27;76.68
34205;BME280;20471;49.680;20.074;2024-03-06T08:38:54;97379.45;;;5.28;76.32
34205;BME280;20471;49.680;20.074;2024-03-06T08:41:20;97380.63;;;5.24;76.12
34205;BME280;20471;49.680;20.074;2024-03-06T08:43:47;97378.70;;;5.24;76.14
34205;BME280;20471;49.680;20.074;2024-03-06T08:46:13;97378.13;;;5.24;76.15
34205;BME280;20471;49.680;20.074;2024-03-06T08:48:40;97376.17;;;5.21;76.31
34205;BME280;20471;49.680;20.074;2024-03-06T08:51:07;97373.83;;;5.19;76.45
34205;BME280;20471;49.680;20.074;2024-03-06T08:53:37;97379.59;;;5.19;76.52
34205;BME280;20471;49.680;20.074;2024-03-06T08:56:05;97382.61;;;5.22;76.14
34205;BME280;20471;49.680;20.074;2024-03-06T08:58:32;97383.17;;;5.25;76.10
34205;BME280;20471;49.680;20.074;2024-03-06T09:00:59;97381.45;;;5.28;76.12
34205;BME280;20471;49.680;20.074;2024-03-06T09:03:25;97380.77;;;5.32;76.11
34205;BME280;20471;49.680;20.074;2024-03-06T09:05:52;97377.93;;;5.36;75.93
34205;BME280;20471;49.680;20.074;2024-03-06T09:08:19;97377.98;;;5.42;75.75
34205;BME280;20471;49.680;20.074;2024-03-06T09:10:45;97374.00;;;5.46;75.31
34205;BME280;20471;49.680;20.074;2024-03-06T09:13:12;97371.39;;;5.47;75.31
34205;BME280;20471;49.680;20.074;2024-03-06T09:15:39;97372.42;;;5.52;75.19
34205;BME280;20471;49.680;20.074;2024-03-06T09:18:06;97369.07;;;5.56;74.96
34205;BME280;20471;49.680;20.074;2024-03-06T09:20:32;97371.18;;;5.59;74.82
34205;BME280;20471;49.680;20.074;2024-03-06T09:22:59;97369.81;;;5.59;74.42
34205;BME280;20471;49.680;20.074;2024-03-06T09:25:26;97364.23;;;5.57;74.42
34205;BME280;20471;49.680;20.074;2024-03-06T09:27:54;97368.16;;;5.56;74.47
34205;BME280;20471;49.680;20.074;2024-03-06T09:30:20;97371.52;;;5.58;74.42
34205;BME280;20471;49.680;20.074;2024-03-06T09:32:47;97371.31;;;5.59;74.27
34205;BME280;20471;49.680;20.074;2024-03-06T09:35:14;97373.73;;;5.59;74.09
34205;BME280;20471;49.680;20.074;2024-03-06T09:37:44;97376.17;;;5.55;73.91
34205;BME280;20471;49.680;20.074;2024-03-06T09:40:20;97373.81;;;5.41;73.79
34205;BME280;20471;49.680;20.074;2024-03-06T09:42:49;97374.02;;;5.36;74.06
34205;BME280;20471;49.680;20.074;2024-03-06T09:45:17;97373.27;;;5.32;73.75
34205;BME280;20471;49.680;20.074;2024-03-06T09:47:45;97372.42;;;5.21;73.71
34205;BME280;20471;49.680;20.074;2024-03-06T09:50:16;97374.65;;;5.14;73.66
34205;BME280;20471;49.680;20.074;2024-03-06T09:52:45;97374.52;;;5.03;73.01
34205;BME280;20471;49.680;20.074;2024-03-06T09:55:13;97376.64;;;4.96;73.50
34205;BME280;20471;49.680;20.074;2024-03-06T09:57:40;97381.71;;;4.94;73.69
34205;BME280;20471;49.680;20.074;2024-03-06T10:00:07;97385.96;;;4.86;73.78
34205;BME280;20471;49.680;20.074;2024-03-06T10:02:52;97384.63;;;4.87;74.13
34205;BME280;20471;49.680;20.074;2024-03-06T10:05:21;97387.01;;;4.97;74.38
34205;BME280;20471;49.680;20.074;2024-03-06T10:07:50;97389.86;;;5.00;74.38
34205;BME280;20471;49.680;20.074;2024-03-06T10:10:19;97391.88;;;4.97;74.28
34205;BME280;20471;49.680;20.074;2024-03-06T10:12:48;97386.98;;;4.90;74.20
34205;BME280;20471;49.680;20.074;2024-03-06T10:15:15;97392.42;;;4.72;73.96
34205;BME280;20471;49.680;20.074;2024-03-06T10:17:42;97392.23;;;4.60;74.21
34205;BME280;20471;49.680;20.074;2024-03-06T10:20:23;97389.34;;;4.46;74.31
34205;BME280;20471;49.680;20.074;2024-03-06T10:22:52;97391.83;;;4.40;74.87
34205;BME280;20471;49.680;20.074;2024-03-06T10:25:22;97391.50;;;4.41;75.14
34205;BME280;20471;49.680;20.074;2024-03-06T10:28:08;97391.54;;;4.47;75.25
34205;BME280;20471;49.680;20.074;2024-03-06T10:30:37;97395.46;;;4.58;75.42
34205;BME280;20471;49.680;20.074;2024-03-06T10:33:08;97392.98;;;4.67;75.38
34205;BME280;20471;49.680;20.074;2024-03-06T10:35:35;97390.70;;;4.78;75.02
34205;BME280;20471;49.680;20.074;2024-03-06T10:38:04;97387.83;;;4.89;74.64
34205;BME280;20471;49.680;20.074;2024-03-06T10:40:33;97388.80;;;4.94;74.14
34205;BME280;20471;49.680;20.074;2024-03-06T10:43:01;97390.45;;;4.94;73.83
34205;BME280;20471;49.680;20.074;2024-03-06T10:48:09;97393.89;;;5.04;74.04
34205;BME280;20471;49.680;20.074;2024-03-06T10:50:41;97397.23;;;5.06;73.95
34205;BME280;20471;49.680;20.074;2024-03-06T10:53:11;97394.24;;;5.10;73.99
34205;BME280;20471;49.680;20.074;2024-03-06T10:55:38;97395.37;;;5.13;73.91
34205;BME280;20471;49.680;20.074;2024-03-06T10:58:06;97396.04;;;5.18;73.89
34205;BME280;20471;49.680;20.074;2024-03-06T11:00:39;97399.34;;;5.23;73.83
34205;BME280;20471;49.680;20.074;2024-03-06T11:03:07;97396.31;;;5.27;73.69
34205;BME280;20471;49.680;20.074;2024-03-06T11:05:38;97394.73;;;5.27;73.65
34205;BME280;20471;49.680;20.074;2024-03-06T11:08:09;97393.90;;;5.28;73.63
34205;BME280;20471;49.680;20.074;2024-03-06T11:10:38;97393.27;;;5.31;73.52
34205;BME280;20471;49.680;20.074;2024-03-06T11:13:21;97390.20;;;5.32;73.44
34205;BME280;20471;49.680;20.074;2024-03-06T11:15:53;97385.03;;;5.34;73.43
34205;BME280;20471;49.680;20.074;2024-03-06T11:26:35;97382.59;;;5.12;73.57
34205;BME280;20471;49.680;20.074;2024-03-06T11:29:02;97381.52;;;5.15;73.30
34205;BME280;20471;49.680;20.074;2024-03-06T11:31:30;97383.41;;;5.10;73.11
34205;BME280;20471;49.680;20.074;2024-03-06T11:33:57;97380.60;;;5.08;73.10
34205;BME280;20471;49.680;20.074;2024-03-06T11:36:28;97381.10;;;5.11;73.31
34205;BME280;20471;49.680;20.074;2024-03-06T11:39:05;97382.38;;;5.19;73.55
34205;BME280;20471;49.680;20.074;2024-03-06T11:41:50;97383.37;;;5.16;73.44
34205;BME280;20471;49.680;20.074;2024-03-06T11:44:18;97381.33;;;5.06;73.31
34205;BME280;20471;49.680;20.074;2024-03-06T11:49:20;97385.61;;;5.03;73.77
34205;BME280;20471;49.680;20.074;2024-03-06T11:51:47;97384.27;;;5.01;73.88
34205;BME280;20471;49.680;20.074;2024-03-06T11:54:14;97385.91;;;5.00;73.77
34205;BME280;20471;49.680;20.074;2024-03-06T11:56:43;97385.20;;;5.02;73.95
34205;BME280;20471;49.680;20.074;2024-03-06T11:59:12;97382.73;;;5.03;74.08
34205;BME280;20471;49.680;20.074;2024-03-06T12:01:40;97381.59;;;5.02;73.98
34205;BME280;20471;49.680;20.074;2024-03-06T12:04:07;97379.66;;;5.02;73.90
34205;BME280;20471;49.680;20.074;2024-03-06T12:06:35;97377.30;;;5.04;74.05
34205;BME280;20471;49.680;20.074;2024-03-06T12:09:04;97375.63;;;5.05;74.14
34205;BME280;20471;49.680;20.074;2024-03-06T12:11:31;97377.34;;;5.05;74.24
34205;BME280;20471;49.680;20.074;2024-03-06T12:13:58;97377.44;;;5.06;74.22
34205;BME280;20471;49.680;20.074;2024-03-06T12:16:24;97377.86;;;5.05;74.23
34205;BME280;20471;49.680;20.074;2024-03-06T12:18:55;97375.63;;;5.04;74.27
34205;BME280;20471;49.680;20.074;2024-03-06T12:21:32;97376.74;;;5.03;74.26
34205;BME280;20471;49.680;20.074;2024-03-06T12:24:07;97380.20;;;5.00;74.31
34205;BME280;20471;49.680;20.074;2024-03-06T12:26:35;97380.30;;;4.98;74.14
34205;BME280;20471;49.680;20.074;2024-03-06T12:31:34;97378.41;;;4.96;74.35
34205;BME280;20471;49.680;20.074;2024-03-06T12:34:02;97373.24;;;4.95;74.38
34205;BME280;20471;49.680;20.074;2024-03-06T12:36:29;97370.27;;;4.93;74.36
34205;BME280;20471;49.680;20.074;2024-03-06T12:39:02;97371.36;;;4.91;74.46
34205;BME280;20471;49.680;20.074;2024-03-06T12:41:29;97375.29;;;4.89;74.68
34205;BME280;20471;49.680;20.074;2024-03-06T12:43:56;97373.45;;;4.88;74.63
34205;BME280;20471;49.680;20.074;2024-03-06T12:46:23;97376.56;;;4.88;74.76
34205;BME280;20471;49.680;20.074;2024-03-06T12:48:51;97380.30;;;4.89;74.89
34205;BME280;20471;49.680;20.074;2024-03-06T12:51:18;97375.79;;;4.89;74.83
34205;BME280;20471;49.680;20.074;2024-03-06T12:53:45;97379.00;;;4.90;74.69
34205;BME280;20471;49.680;20.074;2024-03-06T12:56:13;97378.70;;;4.88;74.65
34205;BME280;20471;49.680;20.074;2024-03-06T12:58:40;97380.05;;;4.81;74.78
34205;BME280;20471;49.680;20.074;2024-03-06T13:01:06;97381.67;;;4.71;74.80
34205;BME280;20471;49.680;20.074;2024-03-06T13:03:33;97380.59;;;4.54;74.74
34205;BME280;20471;49.680;20.074;2024-03-06T13:06:00;97377.45;;;4.38;74.88
34205;BME280;20471;49.680;20.074;2024-03-06T13:08:26;97377.77;;;4.24;75.03
34205;BME280;20471;49.680;20.074;2024-03-06T13:10:53;97383.20;;;4.15;75.35
34205;BME280;20471;49.680;20.074;2024-03-06T13:13:22;97391.28;;;4.08;75.55
34205;BME280;20471;49.680;20.074;2024-03-06T13:15:51;97384.65;;;4.02;75.58
34205;BME280;20471;49.680;20.074;2024-03-06T13:18:18;97385.98;;;3.92;75.62
34205;BME280;20471;49.680;20.074;2024-03-06T13:20:44;97384.40;;;3.90;75.94